الصفحة الرئيسية
METAR-TAF:

METAR-TAF

مطار :

Iranshahr, إيران

دائرة عرض: 27-12N, خط طول: 060-42E, ارتفاع: 591 متر

مراقبة الطقس الحالي

تاريخ ووقت الإصدار 49 دقيقة قبل الساعة 21:00UTC
ريح 6 عقدة من الغرب
درجة الحرارة 38°درجة مئوية
الرطوبة 33%
ضغط 999 hPa
الرؤية 10 كم أو أكثر
الغيوم لا تقل 1500 م ولا وجود لمزنة ركامية السحاب الأسود

METAR: OIZI 212100Z 26006KT CAVOK 38/19 Q0999

زمن: 02:19 (21:49 UTC)


TAF: مفقودة

أرصاد الطقس والتوقعات من أكثر من 4000 مطار (تقارير الطقس للمطار METAR والتنبؤ بالطقس بالمطارTAF).

المحطات المتاحة هي النقط الصفراء والحمراء على الخريطة.

حرك المؤشر فوق النقطة لمعرفة اسم المحطة.

ثم انقر لمعرفة أرصاد وتوقعات الطقس.

لتغيير الخارطة: اضغط على الأزرار الخضراء مع رمز الصليب الأسود للتكبير. على الزر الأخضر مع شرطة للتصغير، أو على الأسهم الخضراء للخرائط المجاورة.


METAR-TAF: